Time;durP1;ratioP1;P1;durP2;ratioP2;P2;SDS_P1;SDS_P2;PMS_P1;PMS_P2;Temp;Humidity;BMP_temperature;BMP_pressure;BME280_temperature;BME280_humidity;BME280_pressure;Samples;Min_cycle;Max_cycle;Signal;HPM_P1;HPM_P2
2023/06/19 00:00:40;;;;;;;10.60;6.13;;;22.40;81.50;;;;;;5071361;28;20048;-70
2023/06/19 00:03:05;;;;;;;7.57;5.65;;;22.30;81.80;;;;;;5071452;28;20028;-70
2023/06/19 00:05:31;;;;;;;7.30;5.72;;;22.30;82.10;;;;;;5071927;28;20036;-70
2023/06/19 00:07:56;;;;;;;7.65;5.55;;;22.30;82.30;;;;;;5070849;28;20024;-70
2023/06/19 00:10:22;;;;;;;6.80;5.43;;;22.20;82.60;;;;;;5071518;28;20035;-70
2023/06/19 00:12:48;;;;;;;8.25;5.00;;;22.20;82.90;;;;;;5061844;28;20108;-70
2023/06/19 00:15:14;;;;;;;9.75;5.35;;;22.10;83.20;;;;;;5051619;28;20029;-70
2023/06/19 00:17:39;;;;;;;6.45;4.47;;;22.00;84.10;;;;;;5065629;28;20443;-70
2023/06/19 00:20:06;;;;;;;6.43;4.82;;;22.00;83.70;;;;;;5070553;28;20107;-70
2023/06/19 00:22:32;;;;;;;3.83;3.40;;;22.00;83.70;;;;;;5071691;28;20016;-70
2023/06/19 00:24:57;;;;;;;7.47;3.83;;;22.10;83.70;;;;;;5069785;28;20032;-70
2023/06/19 00:27:24;;;;;;;6.32;3.95;;;22.10;83.60;;;;;;5071245;28;20032;-70
2023/06/19 00:29:51;;;;;;;5.80;3.88;;;22.20;83.30;;;;;;5070846;28;20111;-70
2023/06/19 00:32:16;;;;;;;4.85;3.72;;;22.30;83.10;;;;;;5070763;28;20112;-71
2023/06/19 00:34:42;;;;;;;6.55;4.00;;;22.30;82.90;;;;;;5071367;28;20104;-70
2023/06/19 00:37:09;;;;;;;6.07;3.88;;;22.30;82.80;;;;;;5070676;28;20561;-70
2023/06/19 00:39:35;;;;;;;5.45;3.75;;;22.30;82.80;;;;;;5071148;28;20020;-70
2023/06/19 00:42:01;;;;;;;5.47;4.30;;;22.30;82.90;;;;;;5070592;28;20036;-70
2023/06/19 00:44:27;;;;;;;5.28;4.43;;;22.30;82.90;;;;;;5070779;28;20047;-70
2023/06/19 00:47:02;;;;;;;6.05;3.97;;;22.20;83.00;;;;;;5070258;28;20017;-71
2023/06/19 00:49:29;;;;;;;5.80;4.30;;;22.20;83.00;;;;;;5071258;28;20032;-70
2023/06/19 00:51:55;;;;;;;5.50;3.83;;;22.30;83.10;;;;;;5070766;28;20036;-70
2023/06/19 00:54:21;;;;;;;6.00;3.95;;;22.30;83.20;;;;;;5071076;28;20029;-70
2023/06/19 00:56:47;;;;;;;6.75;4.47;;;22.30;83.20;;;;;;5071340;28;20171;-70
2023/06/19 00:59:18;;;;;;;7.25;4.05;;;22.20;83.20;;;;;;5070232;28;20478;-70
2023/06/19 01:01:44;;;;;;;6.35;4.80;;;22.20;83.30;;;;;;5070880;28;20479;-70
2023/06/19 01:04:10;;;;;;;5.32;3.65;;;22.20;83.50;;;;;;5070577;28;20478;-70
2023/06/19 01:06:47;;;;;;;5.13;4.10;;;22.10;83.60;;;;;;5070689;28;20036;-70
2023/06/19 01:09:16;;;;;;;5.57;3.72;;;22.00;83.90;;;;;;5070269;28;20028;-70
2023/06/19 01:11:54;;;;;;;6.30;4.40;;;21.90;84.20;;;;;;5058930;28;20352;-70
2023/06/19 01:14:31;;;;;;;4.82;3.50;;;21.90;84.50;;;;;;5053298;28;20032;-70
2023/06/19 01:16:57;;;;;;;4.75;4.10;;;21.70;84.90;;;;;;5070603;28;20025;-70
2023/06/19 01:19:23;;;;;;;5.70;3.95;;;21.70;85.30;;;;;;5070713;28;20099;-71
2023/06/19 01:21:50;;;;;;;5.03;3.85;;;21.60;85.80;;;;;;5070256;28;20107;-71
2023/06/19 01:24:15;;;;;;;4.78;3.40;;;21.50;86.00;;;;;;5070642;28;20083;-71
2023/06/19 01:26:45;;;;;;;4.57;3.15;;;21.40;86.50;;;;;;5070671;28;20052;-71
2023/06/19 01:29:12;;;;;;;4.68;2.97;;;21.40;87.10;;;;;;5070763;28;20427;-71
2023/06/19 01:31:50;;;;;;;5.68;2.92;;;21.40;87.30;;;;;;5070571;28;20033;-71
2023/06/19 01:34:19;;;;;;;4.45;3.05;;;21.40;87.70;;;;;;5070438;28;20386;-71
2023/06/19 01:36:47;;;;;;;4.80;2.72;;;21.40;88.10;;;;;;5072897;28;20471;-71
2023/06/19 01:39:14;;;;;;;4.35;3.00;;;21.30;88.50;;;;;;5073581;28;20021;-71
2023/06/19 01:41:41;;;;;;;5.45;3.08;;;21.20;88.70;;;;;;5058379;28;20089;-71
2023/06/19 01:44:07;;;;;;;6.18;3.60;;;21.20;89.20;;;;;;5073765;28;20085;-71
2023/06/19 01:46:33;;;;;;;5.47;3.15;;;21.10;89.60;;;;;;5074097;28;20025;-71
2023/06/19 01:48:59;;;;;;;5.03;3.10;;;21.10;90.00;;;;;;5073696;28;20375;-70
2023/06/19 01:51:24;;;;;;;4.38;3.30;;;21.00;90.20;;;;;;5074072;28;20024;-71
2023/06/19 01:53:50;;;;;;;4.95;3.60;;;21.00;90.50;;;;;;5073871;28;20032;-71
2023/06/19 01:56:15;;;;;;;4.30;3.30;;;20.90;90.70;;;;;;5073411;28;20064;-71
2023/06/19 01:58:41;;;;;;;6.00;3.72;;;20.90;90.90;;;;;;5074089;28;20029;-71
2023/06/19 02:01:06;;;;;;;3.92;2.70;;;20.80;91.20;;;;;;5073622;28;20168;-71
2023/06/19 02:03:32;;;;;;;4.03;2.33;;;20.80;91.70;;;;;;5073588;28;20059;-71
2023/06/19 02:05:58;;;;;;;4.55;2.83;;;20.70;91.90;;;;;;5073412;28;20438;-71
2023/06/19 02:08:24;;;;;;;3.92;2.47;;;20.70;92.40;;;;;;5072013;28;20019;-71
2023/06/19 02:10:49;;;;;;;4.22;2.55;;;20.60;92.70;;;;;;5066571;28;20036;-70
2023/06/19 02:13:15;;;;;;;4.63;2.90;;;20.50;93.10;;;;;;5073576;28;20033;-71
2023/06/19 02:15:40;;;;;;;3.97;2.42;;;20.50;93.60;;;;;;5073868;28;20032;-71
2023/06/19 02:18:06;;;;;;;3.40;2.40;;;20.40;94.20;;;;;;5073069;28;20082;-71
2023/06/19 02:20:32;;;;;;;6.10;2.70;;;20.40;94.80;;;;;;5073796;28;20098;-71
2023/06/19 02:22:57;;;;;;;5.15;2.08;;;20.30;95.60;;;;;;5072876;28;20073;-71
2023/06/19 02:25:23;;;;;;;4.70;2.63;;;20.20;96.10;;;;;;5073535;28;20037;-71
2023/06/19 02:27:48;;;;;;;3.00;1.90;;;20.20;96.90;;;;;;5072987;28;20025;-71
2023/06/19 02:30:14;;;;;;;3.38;1.73;;;20.20;97.80;;;;;;5073592;28;20032;-71
2023/06/19 02:32:39;;;;;;;4.75;2.00;;;20.10;98.50;;;;;;5073511;28;20016;-71
2023/06/19 02:35:08;;;;;;;4.55;2.20;;;20.10;99.10;;;;;;5072591;28;20505;-71
2023/06/19 02:37:35;;;;;;;3.33;2.28;;;20.00;99.50;;;;;;5073237;28;20071;-70
2023/06/19 02:40:03;;;;;;;3.90;2.22;;;19.90;99.90;;;;;;5073005;28;20040;-71
2023/06/19 02:42:28;;;;;;;4.80;2.13;;;19.90;99.90;;;;;;5073552;28;20024;-71
2023/06/19 02:44:54;;;;;;;5.95;2.60;;;19.90;99.90;;;;;;5072337;28;20033;-71
2023/06/19 02:47:19;;;;;;;4.43;2.22;;;19.90;99.90;;;;;;5071926;28;20537;-71
2023/06/19 02:49:45;;;;;;;3.35;2.22;;;19.90;99.90;;;;;;5071928;28;20082;-70
2023/06/19 02:52:10;;;;;;;3.63;2.10;;;20.00;99.90;;;;;;5072103;28;20021;-70
2023/06/19 02:54:36;;;;;;;2.30;1.63;;;20.00;99.90;;;;;;5071755;28;20035;-71
2023/06/19 02:57:01;;;;;;;3.25;1.45;;;20.00;99.90;;;;;;5072549;28;20031;-71
2023/06/19 02:59:27;;;;;;;2.95;1.70;;;20.10;99.90;;;;;;5072531;28;20121;-71
2023/06/19 03:01:52;;;;;;;3.05;1.67;;;20.10;99.90;;;;;;5071866;28;20044;-70
2023/06/19 03:04:18;;;;;;;2.63;1.73;;;20.10;99.90;;;;;;5072633;28;20127;-70
2023/06/19 03:06:43;;;;;;;2.90;1.35;;;20.10;99.90;;;;;;5072028;28;20032;-70
2023/06/19 03:09:11;;;;;;;3.08;1.30;;;20.10;99.90;;;;;;5058904;28;20025;-71
2023/06/19 03:11:39;;;;;;;3.67;1.38;;;20.10;99.90;;;;;;5072329;28;20471;-71
2023/06/19 03:14:07;;;;;;;2.63;1.20;;;20.00;99.90;;;;;;5072160;28;20128;-71
2023/06/19 03:16:36;;;;;;;2.83;1.30;;;19.90;99.90;;;;;;5072664;28;20025;-71
2023/06/19 03:19:01;;;;;;;2.25;1.23;;;19.80;99.90;;;;;;5071965;28;20024;-71
2023/06/19 03:21:27;;;;;;;3.03;1.50;;;19.70;99.90;;;;;;5072160;28;20494;-71
2023/06/19 03:23:53;;;;;;;2.97;1.60;;;19.70;99.90;;;;;;5071585;28;20033;-71
2023/06/19 03:26:20;;;;;;;3.90;1.40;;;19.60;99.90;;;;;;5072295;28;20024;-71
2023/06/19 03:28:47;;;;;;;2.72;1.73;;;19.50;99.90;;;;;;5072341;28;20020;-70
2023/06/19 03:31:12;;;;;;;3.25;1.95;;;19.50;99.90;;;;;;5071206;28;20052;-71
2023/06/19 03:33:38;;;;;;;3.08;1.80;;;19.40;99.90;;;;;;5072153;28;20486;-71
2023/06/19 03:36:04;;;;;;;2.75;1.75;;;19.40;99.90;;;;;;5071284;28;20032;-71
2023/06/19 03:38:29;;;;;;;3.03;1.60;;;19.40;99.90;;;;;;5072218;28;20075;-71
2023/06/19 03:40:55;;;;;;;6.20;2.25;;;19.40;99.90;;;;;;5071242;28;20024;-71
2023/06/19 03:43:20;;;;;;;4.10;1.67;;;19.50;99.90;;;;;;5071849;28;20351;-70
2023/06/19 03:45:46;;;;;;;2.38;1.80;;;19.50;99.90;;;;;;5071901;28;20089;-70
2023/06/19 03:48:11;;;;;;;2.83;1.75;;;19.50;99.90;;;;;;5071525;28;20339;-71
2023/06/19 03:50:37;;;;;;;2.88;1.80;;;19.60;99.90;;;;;;5072038;28;20032;-71
2023/06/19 03:53:03;;;;;;;4.80;2.30;;;19.60;99.90;;;;;;5070481;28;20363;-71
2023/06/19 03:55:28;;;;;;;2.47;1.60;;;19.70;99.90;;;;;;5071693;28;20033;-70
2023/06/19 03:57:54;;;;;;;2.85;1.55;;;19.70;99.90;;;;;;5071330;28;20031;-71
2023/06/19 04:00:19;;;;;;;4.57;1.50;;;19.70;99.90;;;;;;5070548;28;20859;-71
2023/06/19 04:02:48;;;;;;;3.15;1.67;;;19.70;99.90;;;;;;5071507;28;20032;-71
2023/06/19 04:05:15;;;;;;;3.17;1.70;;;19.80;99.90;;;;;;5071834;28;20116;-71
2023/06/19 04:07:41;;;;;;;6.15;1.88;;;19.80;99.90;;;;;;5059100;28;20021;-71
2023/06/19 04:10:07;;;;;;;4.82;2.00;;;19.80;99.90;;;;;;5067023;28;20040;-71
2023/06/19 04:12:33;;;;;;;2.30;1.40;;;19.80;99.90;;;;;;5071439;28;20021;-71
2023/06/19 04:14:58;;;;;;;3.28;2.00;;;19.90;99.90;;;;;;5070431;28;20453;-71
2023/06/19 04:17:24;;;;;;;3.25;1.80;;;19.80;99.90;;;;;;5071352;28;20435;-71
2023/06/19 04:19:49;;;;;;;5.38;1.63;;;19.90;99.90;;;;;;5070829;28;20408;-71
2023/06/19 04:22:15;;;;;;;3.15;1.50;;;19.90;99.90;;;;;;5071307;28;20531;-71
2023/06/19 04:24:40;;;;;;;3.28;1.70;;;19.90;99.90;;;;;;5071323;28;20082;-71
2023/06/19 04:27:08;;;;;;;2.95;1.77;;;19.90;99.90;;;;;;5070831;28;20052;-71
2023/06/19 04:29:33;;;;;;;3.33;2.17;;;19.90;99.90;;;;;;5071219;28;20386;-71
2023/06/19 04:31:59;;;;;;;3.53;1.85;;;19.90;99.90;;;;;;5070656;28;20085;-71
2023/06/19 04:34:25;;;;;;;5.63;2.25;;;19.90;99.90;;;;;;5070921;28;20497;-71
2023/06/19 04:36:51;;;;;;;4.13;2.25;;;19.90;99.90;;;;;;5070594;28;20012;-71
2023/06/19 04:39:16;;;;;;;4.28;1.83;;;20.00;99.90;;;;;;5071193;28;20024;-71
2023/06/19 04:41:45;;;;;;;4.80;2.67;;;20.00;99.90;;;;;;5071332;28;20367;-71
2023/06/19 04:44:13;;;;;;;5.22;2.78;;;19.90;99.90;;;;;;5070112;28;20090;-71
2023/06/19 04:46:40;;;;;;;4.47;2.08;;;20.00;99.90;;;;;;5070698;28;20043;-71
2023/06/19 04:49:05;;;;;;;3.83;2.17;;;20.00;99.90;;;;;;5070944;28;20025;-71
2023/06/19 04:51:42;;;;;;;5.15;2.30;;;20.00;99.90;;;;;;5070932;28;20100;-70
2023/06/19 04:54:08;;;;;;;3.33;2.40;;;20.00;99.90;;;;;;5071031;28;20328;-70
2023/06/19 04:56:33;;;;;;;4.53;2.08;;;20.00;99.90;;;;;;5071007;28;20417;-70
2023/06/19 04:59:00;;;;;;;3.17;2.60;;;20.10;99.90;;;;;;5070198;28;20024;-70
2023/06/19 05:01:30;;;;;;;7.50;2.85;;;20.10;99.90;;;;;;5070500;28;20082;-70
2023/06/19 05:03:56;;;;;;;4.10;2.60;;;20.10;99.90;;;;;;5070601;28;20031;-70
2023/06/19 05:06:23;;;;;;;4.15;3.10;;;20.10;99.90;;;;;;5057621;28;20068;-70
2023/06/19 05:08:48;;;;;;;6.07;3.72;;;20.10;99.90;;;;;;5052696;28;20033;-71
2023/06/19 05:11:14;;;;;;;5.85;3.53;;;20.10;99.90;;;;;;5072659;28;20028;-70
2023/06/19 05:13:39;;;;;;;5.25;3.45;;;20.10;99.90;;;;;;5073459;28;20482;-70
2023/06/19 05:16:05;;;;;;;5.25;4.30;;;20.10;99.90;;;;;;5074361;28;20035;-70
2023/06/19 05:18:30;;;;;;;7.90;4.22;;;20.20;99.90;;;;;;5074536;28;20486;-70
2023/06/19 05:20:56;;;;;;;6.85;4.45;;;20.10;99.90;;;;;;5073923;28;20028;-70
2023/06/19 05:23:22;;;;;;;7.05;4.85;;;20.20;99.90;;;;;;5073972;28;20131;-70
2023/06/19 05:25:47;;;;;;;6.63;5.10;;;20.20;99.90;;;;;;5074418;28;20049;-70
2023/06/19 05:28:13;;;;;;;7.90;5.20;;;20.20;99.90;;;;;;5074131;28;20059;-70
2023/06/19 05:30:38;;;;;;;7.18;5.22;;;20.30;99.90;;;;;;5074154;28;20031;-70
2023/06/19 05:33:04;;;;;;;6.20;4.55;;;20.40;99.90;;;;;;5074102;28;20025;-70
2023/06/19 05:35:30;;;;;;;6.15;5.18;;;20.40;99.90;;;;;;5073760;28;20111;-70
2023/06/19 05:37:55;;;;;;;6.72;5.13;;;20.40;99.90;;;;;;5073857;28;20033;-70
2023/06/19 05:40:21;;;;;;;6.10;5.30;;;20.50;99.90;;;;;;5074159;28;20020;-70
2023/06/19 05:42:47;;;;;;;7.60;4.35;;;20.50;99.90;;;;;;5074228;28;20023;-70
2023/06/19 05:45:12;;;;;;;6.50;4.38;;;20.50;99.90;;;;;;5073757;28;20509;-70
2023/06/19 05:47:38;;;;;;;6.22;5.05;;;20.60;99.90;;;;;;5074109;28;20028;-70
2023/06/19 05:50:04;;;;;;;7.40;3.78;;;20.70;99.90;;;;;;5073136;28;20096;-70
2023/06/19 05:52:29;;;;;;;7.53;3.85;;;20.80;99.90;;;;;;5074034;28;20531;-70
2023/06/19 05:54:55;;;;;;;4.97;4.20;;;21.00;99.90;;;;;;5073689;28;20028;-70
2023/06/19 05:57:20;;;;;;;5.65;4.15;;;21.10;99.90;;;;;;5073665;28;20044;-70
2023/06/19 05:59:50;;;;;;;4.97;4.30;;;21.10;99.90;;;;;;5073810;28;20063;-70
2023/06/19 06:02:16;;;;;;;6.85;4.45;;;21.00;99.90;;;;;;5073626;28;20064;-70
2023/06/19 06:04:42;;;;;;;6.82;4.32;;;21.00;99.90;;;;;;5069402;28;20036;-70
2023/06/19 06:07:08;;;;;;;4.95;4.28;;;21.00;99.90;;;;;;5073389;28;20028;-70
2023/06/19 06:09:33;;;;;;;7.95;4.25;;;21.10;99.90;;;;;;5073888;28;20493;-70
2023/06/19 06:12:00;;;;;;;4.82;4.32;;;21.10;99.90;;;;;;5073542;28;20024;-70
2023/06/19 06:14:26;;;;;;;5.90;4.88;;;21.10;99.90;;;;;;5073059;28;20032;-70
2023/06/19 06:16:52;;;;;;;5.72;5.07;;;21.20;99.90;;;;;;5073361;28;20021;-70
2023/06/19 06:19:19;;;;;;;10.15;5.72;;;21.20;99.90;;;;;;5073461;28;20089;-70
2023/06/19 06:21:45;;;;;;;6.78;6.07;;;21.20;99.90;;;;;;5073215;28;20510;-70
2023/06/19 06:24:10;;;;;;;6.35;5.47;;;21.30;99.90;;;;;;5073270;28;20052;-70
2023/06/19 06:26:37;;;;;;;8.07;5.63;;;21.30;99.90;;;;;;5072177;28;20478;-70
2023/06/19 06:29:02;;;;;;;9.60;6.28;;;21.50;99.90;;;;;;5072681;28;20390;-70
2023/06/19 06:31:28;;;;;;;9.20;6.18;;;21.50;99.90;;;;;;5073197;28;20025;-70
2023/06/19 06:33:53;;;;;;;8.82;6.65;;;21.70;99.90;;;;;;5072379;28;20032;-70
2023/06/19 06:36:19;;;;;;;7.35;6.55;;;21.80;99.90;;;;;;5073039;28;20478;-70
2023/06/19 06:38:44;;;;;;;8.02;6.72;;;21.90;99.90;;;;;;5073214;28;20028;-70
2023/06/19 06:41:10;;;;;;;9.50;7.18;;;22.10;99.90;;;;;;5072112;28;20025;-70
2023/06/19 06:43:36;;;;;;;7.22;6.50;;;22.30;99.90;;;;;;5072209;28;20058;-70
2023/06/19 06:46:01;;;;;;;7.47;6.70;;;22.40;99.90;;;;;;5072201;28;20032;-71
2023/06/19 06:48:27;;;;;;;8.43;6.13;;;22.50;99.90;;;;;;5073009;28;20059;-70
2023/06/19 06:50:59;;;;;;;7.65;6.72;;;22.60;99.90;;;;;;5072304;28;20040;-70
2023/06/19 06:53:25;;;;;;;6.80;6.13;;;22.70;99.90;;;;;;5073033;28;20033;-70
2023/06/19 06:55:52;;;;;;;7.72;6.85;;;22.60;99.90;;;;;;5070961;28;20442;-70
2023/06/19 06:58:18;;;;;;;6.97;6.28;;;22.40;99.90;;;;;;5072721;28;20027;-70
2023/06/19 07:00:44;;;;;;;7.80;7.00;;;22.30;99.90;;;;;;5072054;28;20503;-70
2023/06/19 07:03:09;;;;;;;8.07;6.88;;;22.10;99.90;;;;;;5063267;28;20028;-70
2023/06/19 07:05:35;;;;;;;9.20;7.28;;;21.90;99.90;;;;;;5061705;28;20039;-70
2023/06/19 07:08:01;;;;;;;9.55;7.18;;;21.70;99.90;;;;;;5072246;28;20030;-69
2023/06/19 07:10:26;;;;;;;9.15;8.20;;;21.50;99.90;;;;;;5072150;28;20037;-70
2023/06/19 07:12:52;;;;;;;8.90;6.82;;;21.40;99.90;;;;;;5072165;28;20025;-70
2023/06/19 07:15:17;;;;;;;11.82;8.15;;;21.50;99.90;;;;;;5072073;28;20040;-70
2023/06/19 07:17:46;;;;;;;11.65;8.52;;;21.60;99.90;;;;;;5071770;28;20028;-70
2023/06/19 07:20:12;;;;;;;8.05;7.25;;;21.70;99.90;;;;;;5070734;28;20032;-70
2023/06/19 07:22:38;;;;;;;8.77;7.05;;;21.80;99.90;;;;;;5072372;28;20029;-70
2023/06/19 07:25:05;;;;;;;8.13;6.60;;;21.90;99.90;;;;;;5071478;28;20479;-70
2023/06/19 07:27:31;;;;;;;9.35;7.30;;;21.90;99.90;;;;;;5072426;28;20351;-70
2023/06/19 07:29:56;;;;;;;12.25;7.53;;;21.90;99.90;;;;;;5071479;28;20028;-70
2023/06/19 07:32:22;;;;;;;9.32;7.47;;;22.00;99.90;;;;;;5072045;28;20555;-70
2023/06/19 07:34:47;;;;;;;9.60;7.00;;;21.90;99.90;;;;;;5071744;28;20090;-70
2023/06/19 07:37:17;;;;;;;8.20;6.38;;;22.00;99.90;;;;;;5071821;28;20029;-70
2023/06/19 07:39:50;;;;;;;8.93;6.72;;;22.20;99.90;;;;;;5071420;28;20111;-70
2023/06/19 07:42:17;;;;;;;12.35;7.15;;;22.30;99.90;;;;;;5072163;28;20023;-70
2023/06/19 07:44:43;;;;;;;10.25;6.95;;;22.50;99.90;;;;;;5071960;28;20044;-70
2023/06/19 07:47:09;;;;;;;9.40;7.05;;;22.70;99.90;;;;;;5071424;28;20032;-70
2023/06/19 07:49:35;;;;;;;10.68;8.68;;;22.90;99.90;;;;;;5071851;28;20017;-70
2023/06/19 07:52:01;;;;;;;8.90;8.00;;;22.80;99.80;;;;;;5071361;28;20017;-70
2023/06/19 07:54:26;;;;;;;9.07;7.72;;;23.00;99.70;;;;;;5071643;28;20044;-70
2023/06/19 07:56:52;;;;;;;9.05;7.85;;;23.20;99.30;;;;;;5070652;28;20032;-71
2023/06/19 07:59:18;;;;;;;9.88;7.95;;;23.30;99.00;;;;;;5071684;28;20029;-70
2023/06/19 08:01:44;;;;;;;7.15;6.18;;;23.50;98.70;;;;;;5070275;28;20402;-70
2023/06/19 08:04:09;;;;;;;9.57;7.22;;;23.50;98.40;;;;;;5071395;28;20074;-70
2023/06/19 08:06:35;;;;;;;10.07;8.60;;;23.50;97.90;;;;;;5071660;28;20431;-70
2023/06/19 08:09:00;;;;;;;11.10;7.75;;;23.30;97.90;;;;;;5070715;28;20043;-70
2023/06/19 08:11:26;;;;;;;9.68;8.48;;;23.20;97.90;;;;;;5071214;28;20103;-70
2023/06/19 08:13:52;;;;;;;9.23;7.82;;;23.30;97.70;;;;;;5071115;28;20032;-70
2023/06/19 08:16:18;;;;;;;9.23;6.88;;;23.20;97.50;;;;;;5071486;28;20127;-70
2023/06/19 08:18:44;;;;;;;8.82;7.32;;;23.20;97.60;;;;;;5071398;28;20032;-70
2023/06/19 08:21:10;;;;;;;14.57;9.35;;;23.10;97.60;;;;;;5071116;28;20099;-70
2023/06/19 08:23:37;;;;;;;9.80;7.72;;;23.10;97.50;;;;;;5071114;28;20071;-70
2023/06/19 08:26:03;;;;;;;8.85;7.90;;;23.20;97.60;;;;;;5070387;28;20115;-70
2023/06/19 08:28:30;;;;;;;9.77;8.35;;;23.30;97.40;;;;;;5071506;28;20170;-70
2023/06/19 08:30:56;;;;;;;11.85;9.13;;;23.50;97.10;;;;;;5070768;28;20027;-70
2023/06/19 08:33:21;;;;;;;9.63;8.25;;;23.60;96.80;;;;;;5071195;28;20394;-70
2023/06/19 08:35:48;;;;;;;11.82;9.07;;;23.50;96.80;;;;;;5071274;28;20033;-70
2023/06/19 08:38:13;;;;;;;10.02;9.02;;;23.50;96.80;;;;;;5069630;28;20028;-70
2023/06/19 08:40:41;;;;;;;10.35;9.27;;;23.50;96.70;;;;;;5070830;28;20039;-70
2023/06/19 08:43:06;;;;;;;13.00;9.52;;;23.50;96.90;;;;;;5070733;28;20386;-70
2023/06/19 08:45:32;;;;;;;12.40;11.18;;;23.60;96.90;;;;;;5072095;28;20028;-70
2023/06/19 08:47:59;;;;;;;11.07;9.18;;;23.60;96.70;;;;;;5074921;28;20021;-70
2023/06/19 08:50:25;;;;;;;12.13;10.55;;;23.60;96.70;;;;;;5075315;28;20052;-70
2023/06/19 08:52:50;;;;;;;13.15;10.20;;;23.70;96.80;;;;;;5074712;28;20035;-70
2023/06/19 08:55:16;;;;;;;12.35;10.02;;;23.80;96.60;;;;;;5075023;28;20036;-70
2023/06/19 08:57:41;;;;;;;12.68;10.40;;;23.90;96.40;;;;;;5075209;28;20444;-70
2023/06/19 09:00:10;;;;;;;12.20;10.95;;;24.00;96.20;;;;;;5074118;28;20382;-70
2023/06/19 09:02:43;;;;;;;12.80;11.13;;;24.00;96.00;;;;;;5075078;28;20029;-70
2023/06/19 09:05:13;;;;;;;13.13;9.70;;;24.00;96.30;;;;;;5074385;28;20079;-70
2023/06/19 09:07:39;;;;;;;11.90;10.60;;;24.10;96.40;;;;;;5074261;28;20489;-70
2023/06/19 09:10:16;;;;;;;13.02;11.70;;;24.20;96.00;;;;;;5074394;28;20054;-70
2023/06/19 09:12:56;;;;;;;12.07;10.90;;;24.40;95.60;;;;;;5074802;28;20025;-70
2023/06/19 09:15:23;;;;;;;14.43;12.07;;;24.40;95.40;;;;;;5074731;28;20053;-70
2023/06/19 09:18:06;;;;;;;14.15;11.10;;;24.30;95.50;;;;;;5074287;28;20033;-70
2023/06/19 09:20:33;;;;;;;16.20;12.88;;;24.20;95.70;;;;;;5074181;28;20115;-70
2023/06/19 09:22:59;;;;;;;14.30;12.20;;;24.20;95.80;;;;;;5074226;28;20070;-70
2023/06/19 09:25:26;;;;;;;11.10;9.88;;;24.30;95.80;;;;;;5074429;28;20038;-70
2023/06/19 09:27:53;;;;;;;13.02;11.40;;;24.50;95.60;;;;;;5073967;28;20039;-71
2023/06/19 09:30:18;;;;;;;17.48;13.32;;;24.60;95.20;;;;;;5074575;28;20024;-71
2023/06/19 09:32:44;;;;;;;12.63;11.32;;;24.80;94.70;;;;;;5074120;28;20031;-71
2023/06/19 09:35:09;;;;;;;18.73;11.40;;;25.00;94.20;;;;;;5074282;28;20388;-71
2023/06/19 09:37:37;;;;;;;13.38;11.88;;;25.10;93.70;;;;;;5074070;28;20012;-71
2023/06/19 09:40:10;;;;;;;14.85;13.35;;;24.90;93.70;;;;;;5074041;28;20025;-71
2023/06/19 09:42:38;;;;;;;15.10;13.10;;;24.90;93.50;;;;;;5074220;28;20382;-71
2023/06/19 09:45:09;;;;;;;14.38;11.52;;;25.00;93.10;;;;;;5073553;28;20035;-71
2023/06/19 09:47:44;;;;;;;14.80;11.88;;;25.10;93.20;;;;;;5074058;28;20035;-71
2023/06/19 09:50:13;;;;;;;13.80;12.50;;;25.30;92.90;;;;;;5073714;28;20025;-71
2023/06/19 09:52:42;;;;;;;14.75;13.27;;;25.40;92.10;;;;;;5074141;28;20025;-71
2023/06/19 09:55:09;;;;;;;16.13;13.93;;;25.50;92.30;;;;;;5073573;28;20035;-71
2023/06/19 09:57:36;;;;;;;15.55;13.95;;;25.60;91.90;;;;;;5073004;28;20486;-71
2023/06/19 10:00:11;;;;;;;12.40;11.10;;;25.60;91.80;;;;;;5068344;28;20029;-72
2023/06/19 10:02:38;;;;;;;13.90;12.57;;;25.50;91.80;;;;;;5073192;28;20466;-71
2023/06/19 10:05:03;;;;;;;16.45;14.10;;;25.60;91.70;;;;;;5073421;28;20028;-71
2023/06/19 10:07:34;;;;;;;15.38;13.40;;;25.60;91.10;;;;;;5073712;28;20478;-71
2023/06/19 10:10:06;;;;;;;15.38;13.65;;;25.50;91.00;;;;;;5073331;28;20032;-71
2023/06/19 10:12:41;;;;;;;14.75;13.25;;;25.50;90.90;;;;;;5073091;28;20029;-71
2023/06/19 10:15:18;;;;;;;15.25;13.52;;;25.30;90.90;;;;;;5073326;28;20502;-71
2023/06/19 10:17:47;;;;;;;15.70;14.05;;;25.30;91.00;;;;;;5073272;28;20037;-71
2023/06/19 10:20:37;;;;;;;14.27;12.85;;;25.30;90.90;;;;;;5073672;28;20050;-70
2023/06/19 10:23:07;;;;;;;15.75;14.15;;;25.40;90.70;;;;;;5072993;28;20028;-70
2023/06/19 10:25:35;;;;;;;14.88;13.38;;;25.30;90.70;;;;;;5072810;28;20466;-70
2023/06/19 10:28:02;;;;;;;14.32;12.68;;;25.30;90.70;;;;;;5073152;28;20020;-70
2023/06/19 10:30:29;;;;;;;16.35;14.88;;;25.30;90.30;;;;;;5073647;28;20111;-70
2023/06/19 10:32:55;;;;;;;13.57;12.27;;;25.30;90.00;;;;;;5072982;28;20107;-71
2023/06/19 10:35:21;;;;;;;14.73;13.32;;;25.30;90.00;;;;;;5073711;28;20549;-70
2023/06/19 10:37:47;;;;;;;14.60;12.82;;;25.40;89.20;;;;;;5073140;28;20509;-71
2023/06/19 10:40:13;;;;;;;14.23;12.82;;;25.60;88.60;;;;;;5072521;28;20513;-70
2023/06/19 10:42:40;;;;;;;13.63;12.43;;;25.70;87.20;;;;;;5073238;28;20025;-70
2023/06/19 10:45:09;;;;;;;14.90;12.57;;;25.70;86.90;;;;;;5073031;28;20040;-70
2023/06/19 10:47:35;;;;;;;14.60;13.13;;;25.80;86.80;;;;;;5072998;28;20025;-70
2023/06/19 10:50:01;;;;;;;13.15;11.80;;;25.70;85.90;;;;;;5072505;28;20037;-70
2023/06/19 10:52:29;;;;;;;13.00;11.50;;;25.80;85.60;;;;;;5072705;28;20193;-70
2023/06/19 10:54:56;;;;;;;12.02;10.65;;;26.00;85.40;;;;;;5072199;28;20037;-71
2023/06/19 10:57:31;;;;;;;12.90;10.70;;;26.20;85.10;;;;;;5066230;28;20028;-71
2023/06/19 10:59:58;;;;;;;14.60;12.93;;;26.30;85.50;;;;;;5052479;28;20494;-72
2023/06/19 11:02:25;;;;;;;14.90;13.20;;;26.50;84.40;;;;;;5052849;28;20068;-70
2023/06/19 11:04:54;;;;;;;14.15;12.73;;;26.60;83.60;;;;;;5070379;28;20044;-71
2023/06/19 11:07:22;;;;;;;14.27;12.77;;;26.90;82.80;;;;;;5072431;28;20044;-70
2023/06/19 11:09:48;;;;;;;14.88;13.38;;;26.90;82.20;;;;;;5071562;28;20050;-70
2023/06/19 11:12:19;;;;;;;14.75;12.80;;;26.90;81.70;;;;;;5072702;28;20029;-70
2023/06/19 11:14:44;;;;;;;15.70;11.32;;;26.80;81.30;;;;;;5072827;28;20020;-70
2023/06/19 11:17:10;;;;;;;13.25;11.85;;;26.90;81.50;;;;;;5072144;28;20154;-70
2023/06/19 11:19:38;;;;;;;11.48;10.27;;;27.00;80.40;;;;;;5070840;28;20098;-70
2023/06/19 11:22:04;;;;;;;15.85;14.43;;;27.20;79.70;;;;;;5072044;28;20012;-70
2023/06/19 11:24:29;;;;;;;16.90;15.10;;;27.20;79.60;;;;;;5071851;28;20047;-70
2023/06/19 11:26:58;;;;;;;17.90;16.20;;;27.10;80.30;;;;;;5071824;28;20025;-71
2023/06/19 11:29:26;;;;;;;18.88;16.67;;;26.90;80.20;;;;;;5072481;28;20025;-71
2023/06/19 11:32:03;;;;;;;18.35;16.25;;;26.70;81.00;;;;;;5071884;28;20099;-70
2023/06/19 11:34:36;;;;;;;18.88;16.02;;;26.60;81.30;;;;;;5070974;28;20032;-70
2023/06/19 11:37:05;;;;;;;19.10;16.98;;;26.50;81.20;;;;;;5071206;28;20398;-71
2023/06/19 11:39:31;;;;;;;21.15;15.98;;;26.40;81.40;;;;;;5072279;28;20024;-71
2023/06/19 11:41:59;;;;;;;16.30;14.32;;;26.50;81.50;;;;;;5071264;28;20075;-70
2023/06/19 11:44:24;;;;;;;18.08;16.23;;;26.70;82.10;;;;;;5072016;28;20107;-70
2023/06/19 11:46:50;;;;;;;17.15;15.55;;;26.90;81.50;;;;;;5070699;28;20434;-70
2023/06/19 11:49:18;;;;;;;14.55;13.05;;;27.10;80.10;;;;;;5071262;28;20024;-71
2023/06/19 11:51:44;;;;;;;15.00;12.85;;;27.10;79.80;;;;;;5071821;28;20395;-71
2023/06/19 11:54:11;;;;;;;15.68;13.20;;;27.20;79.50;;;;;;5071444;28;20024;-71
2023/06/19 11:56:38;;;;;;;14.93;12.90;;;27.30;78.60;;;;;;5061250;28;20052;-71
2023/06/19 11:59:04;;;;;;;15.23;13.77;;;27.40;77.60;;;;;;5063277;28;20032;-71
2023/06/19 12:01:33;;;;;;;16.23;13.20;;;27.40;78.20;;;;;;5070890;28;20135;-70
2023/06/19 12:04:00;;;;;;;12.98;10.75;;;27.30;78.00;;;;;;5070188;28;20111;-70
2023/06/19 12:06:26;;;;;;;13.50;11.18;;;27.20;78.60;;;;;;5071360;28;20032;-70
2023/06/19 12:08:52;;;;;;;12.27;10.82;;;27.20;78.50;;;;;;5071262;28;20140;-71
2023/06/19 12:11:18;;;;;;;14.40;12.18;;;27.20;78.30;;;;;;5071948;28;20440;-71
2023/06/19 12:13:45;;;;;;;15.60;12.88;;;27.40;77.50;;;;;;5071073;28;20074;-71
2023/06/19 12:16:10;;;;;;;15.02;13.57;;;27.40;76.80;;;;;;5069979;28;20421;-71
2023/06/19 12:18:36;;;;;;;15.82;14.25;;;27.20;76.30;;;;;;5071703;28;20066;-71
2023/06/19 12:21:02;;;;;;;14.52;13.05;;;27.20;75.80;;;;;;5070939;28;20039;-70
2023/06/19 12:23:28;;;;;;;12.43;11.15;;;27.20;75.60;;;;;;5071525;28;20524;-70
2023/06/19 12:25:53;;;;;;;11.40;9.45;;;27.20;76.10;;;;;;5070729;28;20064;-71
2023/06/19 12:28:19;;;;;;;11.70;10.57;;;27.30;76.00;;;;;;5063162;28;20422;-70
2023/06/19 12:30:45;;;;;;;12.60;11.15;;;27.30;75.10;;;;;;5049719;28;20451;-71
2023/06/19 12:33:11;;;;;;;13.82;11.98;;;27.30;74.50;;;;;;5065331;28;20020;-70
2023/06/19 12:35:41;;;;;;;26.00;12.38;;;27.40;74.50;;;;;;5070670;28;20493;-70
2023/06/19 12:38:07;;;;;;;14.27;10.85;;;27.40;74.50;;;;;;5071199;28;20033;-71